createdAt,value
2023-03-02T00:01:41.000Z,58.84
2023-03-02T00:04:13.976Z,59.03
2023-03-02T00:06:41.580Z,58.81
2023-03-02T00:09:09.515Z,58.06
2023-03-02T00:11:39.219Z,58.89
2023-03-02T00:14:06.958Z,58.38
2023-03-02T00:16:34.947Z,58.36
2023-03-02T00:19:02.687Z,58.62
2023-03-02T00:21:31.746Z,58.35
2023-03-02T00:23:59.251Z,58.47
2023-03-02T00:26:26.969Z,58.83
2023-03-02T00:28:55.803Z,58.88
2023-03-02T00:31:23.493Z,58.74
2023-03-02T00:33:51.150Z,58.83
2023-03-02T00:36:20.607Z,59.08
2023-03-02T00:38:48.355Z,59.03
2023-03-02T00:41:17.321Z,59.79
2023-03-02T00:43:45.088Z,59.60
2023-03-02T00:46:15.752Z,59.38
2023-03-02T00:48:43.627Z,59.38
2023-03-02T00:51:11.703Z,59.82
2023-03-02T00:53:39.890Z,59.31
2023-03-02T00:56:08.604Z,59.49
2023-03-02T00:58:36.149Z,59.13
2023-03-02T01:01:07.831Z,59.92
2023-03-02T01:03:37.088Z,59.24
2023-03-02T01:06:06.415Z,59.51
2023-03-02T01:08:33.974Z,59.63
2023-03-02T01:11:02.199Z,59.36
2023-03-02T01:13:29.994Z,59.47
2023-03-02T01:16:04.348Z,59.97
2023-03-02T01:18:32.955Z,59.82
2023-03-02T01:21:06.285Z,60.25
2023-03-02T01:23:34.102Z,59.72
2023-03-02T01:26:01.716Z,60.31
2023-03-02T01:28:29.247Z,60.18
2023-03-02T01:30:56.730Z,60.28
2023-03-02T01:33:24.301Z,60.03
2023-03-02T01:35:51.920Z,59.77
2023-03-02T01:38:20.890Z,60.44
2023-03-02T01:40:48.447Z,60.42
2023-03-02T01:43:17.388Z,60.41
2023-03-02T01:45:49.036Z,60.79
2023-03-02T01:48:19.435Z,60.33
2023-03-02T01:50:47.114Z,60.34
2023-03-02T01:53:16.849Z,60.28
2023-03-02T01:55:46.810Z,60.37
2023-03-02T01:58:16.676Z,60.48
2023-03-02T02:00:45.396Z,60.54
2023-03-02T02:03:20.813Z,60.93
2023-03-02T02:05:59.996Z,61.46
2023-03-02T02:08:27.935Z,61.02
2023-03-02T02:10:57.629Z,61.28
2023-03-02T02:13:25.156Z,60.84
2023-03-02T02:15:52.839Z,60.63
2023-03-02T02:18:20.364Z,60.66
2023-03-02T02:20:49.926Z,60.93
2023-03-02T02:23:27.437Z,61.46
2023-03-02T02:26:12.304Z,61.98
2023-03-02T02:28:44.584Z,61.24
2023-03-02T02:31:17.125Z,61.68
2023-03-02T02:33:47.550Z,61.41
2023-03-02T02:36:19.499Z,61.81
2023-03-02T02:38:49.376Z,61.86
2023-03-02T02:41:23.548Z,61.75
2023-03-02T02:43:51.546Z,61.63
2023-03-02T02:46:19.302Z,61.42
2023-03-02T02:48:46.864Z,61.27
2023-03-02T02:51:19.578Z,61.46
2023-03-02T02:53:50.955Z,61.61
2023-03-02T02:56:20.329Z,61.36
2023-03-02T02:58:50.725Z,61.55
2023-03-02T03:01:25.363Z,61.69
2023-03-02T03:03:54.971Z,61.69
2023-03-02T03:06:26.688Z,61.85
2023-03-02T03:09:01.891Z,62.36
2023-03-02T03:11:32.601Z,62.20
2023-03-02T03:14:05.716Z,62.14
2023-03-02T03:16:34.795Z,61.80
2023-03-02T03:19:07.865Z,62.38
2023-03-02T03:21:35.818Z,61.89
2023-03-02T03:24:03.446Z,61.86
2023-03-02T03:26:32.760Z,62.36
2023-03-02T03:29:00.672Z,61.76
2023-03-02T03:31:29.467Z,61.91
2023-03-02T03:34:00.467Z,61.97
2023-03-02T03:36:29.079Z,62.10
2023-03-02T03:38:57.139Z,62.13
2023-03-02T03:41:24.826Z,62.06
2023-03-02T03:43:54.069Z,62.58
2023-03-02T03:46:21.672Z,62.31
2023-03-02T03:48:49.266Z,62.58
2023-03-02T03:51:17.621Z,62.75
2023-03-02T03:53:45.137Z,62.49
2023-03-02T03:56:13.242Z,62.59
2023-03-02T03:58:40.959Z,62.73
2023-03-02T04:01:09.915Z,62.74
2023-03-02T04:03:37.399Z,62.83
2023-03-02T04:06:06.385Z,62.95
2023-03-02T04:08:33.958Z,63.15
2023-03-02T04:11:01.468Z,62.93
2023-03-02T04:13:29.073Z,63.04
2023-03-02T04:15:56.586Z,62.98
2023-03-02T04:18:25.418Z,63.37
2023-03-02T04:20:52.936Z,62.96
2023-03-02T04:23:20.448Z,63.16
2023-03-02T04:25:47.937Z,63.33
2023-03-02T04:28:17.608Z,63.50
2023-03-02T04:30:45.369Z,63.37
2023-03-02T04:33:12.897Z,63.31
2023-03-02T04:35:41.848Z,63.21
2023-03-02T04:38:09.362Z,63.16
2023-03-02T04:40:36.916Z,63.56
2023-03-02T04:43:04.470Z,63.27
2023-03-02T04:45:32.069Z,63.70
2023-03-02T04:47:59.642Z,63.80
2023-03-02T04:50:27.322Z,63.69
2023-03-02T04:52:56.825Z,63.66
2023-03-02T04:55:27.225Z,63.75
2023-03-02T04:57:54.759Z,63.75
2023-03-02T05:00:23.189Z,63.58
2023-03-02T05:02:51.002Z,63.48
2023-03-02T05:05:20.945Z,63.58
2023-03-02T05:07:48.740Z,63.50
2023-03-02T05:10:19.270Z,63.62
2023-03-02T05:12:57.958Z,63.18
2023-03-02T05:15:28.001Z,63.55
2023-03-02T05:17:56.160Z,63.75
2023-03-02T05:20:27.522Z,63.67
2023-03-02T05:22:56.533Z,63.36
2023-03-02T05:25:26.303Z,63.70
2023-03-02T05:27:54.089Z,63.65
2023-03-02T05:30:23.119Z,64.59
2023-03-02T05:32:51.186Z,64.33
2023-03-02T05:35:19.289Z,63.51
2023-03-02T05:37:47.053Z,63.65
2023-03-02T05:40:17.113Z,63.77
2023-03-02T05:42:46.116Z,64.24
2023-03-02T05:45:19.626Z,63.61
2023-03-02T05:47:47.910Z,63.86
2023-03-02T05:50:15.585Z,63.64
2023-03-02T05:52:45.371Z,63.58
2023-03-02T05:55:13.918Z,63.37
2023-03-02T05:57:42.103Z,63.37
2023-03-02T06:00:13.903Z,63.54
2023-03-02T06:02:42.135Z,63.38
2023-03-02T06:05:12.504Z,63.46
2023-03-02T06:07:40.031Z,63.43
2023-03-02T06:10:09.119Z,63.30
2023-03-02T06:12:36.667Z,63.67
2023-03-02T06:15:05.264Z,63.82
2023-03-02T06:17:34.451Z,63.52
2023-03-02T06:20:02.051Z,63.78
2023-03-02T06:22:29.545Z,63.91
2023-03-02T06:24:57.002Z,63.81
2023-03-02T06:27:24.490Z,63.56
2023-03-02T06:29:52.307Z,63.52
2023-03-02T06:32:19.937Z,63.60
2023-03-02T06:34:49.990Z,63.97
2023-03-02T06:37:17.576Z,63.96
2023-03-02T06:39:45.120Z,63.93
2023-03-02T06:42:12.662Z,63.77
2023-03-02T06:44:40.421Z,63.53
2023-03-02T06:47:07.964Z,64.29
2023-03-02T06:49:35.787Z,64.49
2023-03-02T06:52:07.091Z,64.30
2023-03-02T06:54:34.725Z,64.06
2023-03-02T06:57:02.256Z,64.53
2023-03-02T06:59:29.873Z,65.28
2023-03-02T07:01:57.372Z,63.94
2023-03-02T07:04:25.086Z,63.19
2023-03-02T07:06:52.773Z,62.72
2023-03-02T07:09:22.097Z,62.75
2023-03-02T07:11:50.260Z,62.33
2023-03-02T07:14:17.828Z,62.13
2023-03-02T07:16:45.428Z,62.07
2023-03-02T07:19:14.051Z,62.23
2023-03-02T07:21:41.998Z,61.48
2023-03-02T07:24:09.728Z,60.75
2023-03-02T07:26:38.703Z,60.47
2023-03-02T07:29:06.199Z,59.92
2023-03-02T07:31:34.003Z,59.83
2023-03-02T07:34:01.803Z,59.47
2023-03-02T07:36:29.403Z,59.00
2023-03-02T07:38:57.524Z,57.80
2023-03-02T07:41:25.125Z,56.94
2023-03-02T07:43:54.028Z,54.62
2023-03-02T07:46:21.599Z,52.23
2023-03-02T07:48:49.225Z,51.40
2023-03-02T07:51:16.807Z,49.45
2023-03-02T07:53:44.317Z,49.63
2023-03-02T07:56:12.977Z,49.13
2023-03-02T07:58:40.490Z,48.05
2023-03-02T08:01:09.926Z,46.79
2023-03-02T08:03:37.974Z,45.27
2023-03-02T08:06:07.187Z,42.81
2023-03-02T08:08:34.738Z,40.99
2023-03-02T08:11:06.066Z,38.80
2023-03-02T08:13:33.620Z,38.49
2023-03-02T08:16:02.434Z,37.15
2023-03-02T08:18:32.105Z,36.37
2023-03-02T08:21:00.175Z,36.06
2023-03-02T08:23:27.965Z,34.92
2023-03-02T08:25:56.289Z,33.95
2023-03-02T08:28:24.378Z,32.95
2023-03-02T08:30:58.700Z,31.76
2023-03-02T08:33:27.539Z,32.26
2023-03-02T08:35:57.776Z,31.61
2023-03-02T08:38:25.475Z,31.91
2023-03-02T08:40:53.861Z,31.84
2023-03-02T08:43:23.298Z,31.68
2023-03-02T08:45:53.452Z,31.93
2023-03-02T08:48:21.139Z,31.89
2023-03-02T08:50:57.730Z,31.30
2023-03-02T08:53:25.855Z,32.10
2023-03-02T08:55:53.582Z,32.31
2023-03-02T08:58:21.190Z,33.14
2023-03-02T09:00:49.212Z,32.71
2023-03-02T09:03:16.841Z,32.51
2023-03-02T09:05:45.067Z,32.47
2023-03-02T09:08:14.261Z,32.35
2023-03-02T09:10:41.826Z,32.65
2023-03-02T09:13:09.403Z,33.04
2023-03-02T09:15:37.982Z,32.56
2023-03-02T09:18:05.682Z,32.43
2023-03-02T09:20:33.991Z,33.35
2023-03-02T09:23:01.552Z,32.56
2023-03-02T09:25:30.656Z,32.16
2023-03-02T09:27:58.176Z,32.28
2023-03-02T09:30:25.770Z,32.45
2023-03-02T09:32:53.358Z,32.65
2023-03-02T09:35:20.987Z,33.07
2023-03-02T09:37:48.520Z,32.67
2023-03-02T09:40:20.539Z,32.28
2023-03-02T09:43:17.754Z,31.50
2023-03-02T09:45:57.735Z,31.62
2023-03-02T09:48:41.536Z,31.27
2023-03-02T09:51:21.869Z,31.68
2023-03-02T09:53:59.268Z,31.25
2023-03-02T09:56:27.609Z,32.16
2023-03-02T09:59:02.408Z,31.46
2023-03-02T10:01:37.097Z,31.59
2023-03-02T10:04:14.349Z,31.41
2023-03-02T10:06:41.972Z,31.56
2023-03-02T10:09:11.002Z,31.70
2023-03-02T10:11:51.447Z,31.83
2023-03-02T10:14:25.238Z,31.40
2023-03-02T10:17:00.165Z,31.38
2023-03-02T10:19:32.998Z,31.25
2023-03-02T10:22:10.714Z,31.27
2023-03-02T10:24:44.574Z,31.42
2023-03-02T10:27:19.048Z,30.66
2023-03-02T10:29:59.136Z,30.22
2023-03-02T10:32:31.392Z,29.94
2023-03-02T10:35:02.281Z,29.95
2023-03-02T10:37:31.524Z,29.43
2023-03-02T10:39:59.118Z,29.36
2023-03-02T10:42:30.819Z,28.97
2023-03-02T10:45:09.095Z,29.01
2023-03-02T10:47:36.628Z,28.36
2023-03-02T10:50:04.281Z,28.20
2023-03-02T10:52:31.950Z,28.14
2023-03-02T10:55:04.052Z,28.03
2023-03-02T10:57:37.807Z,28.01
2023-03-02T11:00:17.850Z,28.05
2023-03-02T11:02:53.354Z,27.54
2023-03-02T11:05:27.115Z,27.22
2023-03-02T11:07:56.071Z,27.43
2023-03-02T11:10:26.210Z,27.80
2023-03-02T11:12:54.521Z,27.51
2023-03-02T11:15:41.235Z,27.28
2023-03-02T11:18:18.020Z,26.81
2023-03-02T11:20:50.310Z,26.86
2023-03-02T11:23:24.477Z,27.07
2023-03-02T11:25:55.466Z,26.02
2023-03-02T11:28:33.726Z,25.60
2023-03-02T11:31:06.539Z,26.62
2023-03-02T11:33:38.372Z,26.37
2023-03-02T11:36:13.376Z,25.30
2023-03-02T11:38:48.558Z,24.59
2023-03-02T11:41:27.395Z,24.58
2023-03-02T11:43:55.461Z,25.51
2023-03-02T11:46:27.917Z,24.91
2023-03-02T11:48:58.381Z,25.38
2023-03-02T11:51:29.392Z,25.08
2023-03-02T11:54:01.254Z,24.70
2023-03-02T11:56:32.308Z,24.70
2023-03-02T11:59:04.701Z,24.09
2023-03-02T12:01:37.978Z,24.63
2023-03-02T12:04:09.869Z,23.80
2023-03-02T12:06:40.329Z,23.28
2023-03-02T12:09:11.797Z,23.42
2023-03-02T12:11:41.648Z,23.30
2023-03-02T12:14:28.173Z,23.76
2023-03-02T12:17:08.508Z,24.00
2023-03-02T12:19:45.177Z,24.07
2023-03-02T12:22:14.782Z,24.36
2023-03-02T12:24:45.099Z,24.93
2023-03-02T12:27:27.014Z,25.25
2023-03-02T12:30:09.370Z,25.25
2023-03-02T12:32:38.584Z,25.25
2023-03-02T12:35:14.594Z,26.69
2023-03-02T12:37:47.480Z,27.39
2023-03-02T12:40:54.843Z,28.50
2023-03-02T12:43:30.789Z,28.96
2023-03-02T12:46:21.199Z,29.44
2023-03-02T12:48:59.828Z,29.93
2023-03-02T12:51:29.679Z,30.15
2023-03-02T12:54:04.806Z,30.29
2023-03-02T12:56:32.814Z,30.92
2023-03-02T12:59:00.409Z,31.05
2023-03-02T13:01:29.921Z,31.54
2023-03-02T13:03:59.803Z,31.50
2023-03-02T13:06:31.884Z,32.43
2023-03-02T13:09:00.861Z,32.81
2023-03-02T13:11:32.010Z,33.08
2023-03-02T13:14:00.336Z,32.56
2023-03-02T13:16:29.812Z,33.39
2023-03-02T13:19:01.504Z,33.58
2023-03-02T13:21:33.088Z,33.82
2023-03-02T13:24:01.121Z,34.12
2023-03-02T13:26:31.072Z,34.04
2023-03-02T13:29:03.519Z,34.52
2023-03-02T13:31:31.855Z,34.66
2023-03-02T13:34:01.041Z,34.96
2023-03-02T13:36:30.476Z,34.50
2023-03-02T13:39:00.343Z,34.31
2023-03-02T13:41:29.876Z,34.24
2023-03-02T13:43:58.207Z,34.62
2023-03-02T13:46:28.833Z,34.95
2023-03-02T13:49:09.045Z,35.20
2023-03-02T13:51:41.903Z,35.44
2023-03-02T13:54:19.882Z,35.52
2023-03-02T13:56:47.522Z,35.27
2023-03-02T13:59:18.895Z,35.32
2023-03-02T14:01:46.697Z,35.70
2023-03-02T14:04:16.527Z,35.73
2023-03-02T14:06:45.660Z,36.23
2023-03-02T14:09:13.186Z,36.22
2023-03-02T14:11:45.188Z,36.25
2023-03-02T14:14:17.090Z,36.73
2023-03-02T14:16:44.603Z,36.90
2023-03-02T14:19:13.673Z,36.65
2023-03-02T14:21:43.200Z,36.62
2023-03-02T14:24:12.671Z,37.34
2023-03-02T14:26:43.524Z,37.09
2023-03-02T14:29:22.210Z,37.21
2023-03-02T14:31:50.148Z,36.95
2023-03-02T14:34:18.907Z,37.53
2023-03-02T14:36:49.012Z,37.45
2023-03-02T14:39:23.376Z,37.76
2023-03-02T14:41:54.078Z,37.96
2023-03-02T14:44:22.506Z,37.93
2023-03-02T14:46:50.496Z,38.16
2023-03-02T14:49:18.016Z,38.50
2023-03-02T14:51:55.154Z,38.83
2023-03-02T14:54:24.072Z,38.99
2023-03-02T14:56:51.700Z,38.93
2023-03-02T14:59:19.354Z,38.87
2023-03-02T15:01:46.935Z,38.97
2023-03-02T15:04:14.498Z,39.41
2023-03-02T15:06:44.305Z,39.44
2023-03-02T15:09:12.502Z,39.52
2023-03-02T15:11:41.322Z,39.81
2023-03-02T15:14:08.974Z,39.64
2023-03-02T15:16:36.690Z,39.74
2023-03-02T15:19:04.241Z,39.74
2023-03-02T15:21:32.168Z,39.74
2023-03-02T15:23:59.860Z,39.81
2023-03-02T15:26:27.439Z,40.07
2023-03-02T15:28:56.270Z,40.22
2023-03-02T15:31:23.766Z,40.04
2023-03-02T15:33:52.054Z,40.14
2023-03-02T15:36:19.694Z,40.09
2023-03-02T15:38:49.950Z,40.25
2023-03-02T15:41:17.627Z,40.08
2023-03-02T15:43:45.974Z,40.25
2023-03-02T15:46:14.846Z,40.40
2023-03-02T15:48:42.353Z,40.63
2023-03-02T15:51:11.147Z,40.70
2023-03-02T15:53:40.021Z,40.82
2023-03-02T15:56:10.038Z,41.03
2023-03-02T15:58:37.602Z,41.11
2023-03-02T16:01:08.195Z,41.14
2023-03-02T16:03:37.150Z,40.92
2023-03-02T16:06:05.291Z,41.25
2023-03-02T16:08:32.791Z,41.34
2023-03-02T16:11:02.348Z,41.34
2023-03-02T16:13:30.881Z,41.59
2023-03-02T16:16:01.629Z,41.69
2023-03-02T16:18:29.428Z,41.76
2023-03-02T16:20:58.527Z,42.08
2023-03-02T16:23:26.364Z,42.15
2023-03-02T16:25:53.899Z,42.21
2023-03-02T16:28:21.572Z,42.19
2023-03-02T16:30:49.322Z,42.42
2023-03-02T16:33:18.877Z,42.54
2023-03-02T16:35:46.869Z,42.57
2023-03-02T16:38:16.651Z,42.67
2023-03-02T16:40:44.143Z,42.63
2023-03-02T16:43:11.632Z,42.58
2023-03-02T16:45:39.231Z,43.00
2023-03-02T16:48:07.614Z,43.05
2023-03-02T16:50:35.132Z,43.13
2023-03-02T16:53:03.011Z,43.28
2023-03-02T16:55:31.984Z,43.45
2023-03-02T16:57:59.520Z,43.62
2023-03-02T17:00:27.822Z,43.66
2023-03-02T17:02:55.380Z,43.99
2023-03-02T17:05:23.204Z,44.09
2023-03-02T17:07:50.819Z,44.37
2023-03-02T17:10:22.676Z,44.61
2023-03-02T17:12:51.548Z,44.50
2023-03-02T17:15:19.213Z,44.51
2023-03-02T17:17:46.786Z,44.59
2023-03-02T17:20:14.995Z,44.85
2023-03-02T17:22:42.503Z,44.93
2023-03-02T17:25:11.763Z,45.14
2023-03-02T17:27:39.429Z,45.13
2023-03-02T17:30:12.490Z,45.61
2023-03-02T17:32:40.616Z,45.44
2023-03-02T17:35:11.626Z,45.77
2023-03-02T17:37:40.028Z,45.85
2023-03-02T17:40:09.248Z,46.07
2023-03-02T17:42:39.046Z,46.11
2023-03-02T17:45:09.362Z,46.41
2023-03-02T17:47:36.937Z,46.38
2023-03-02T17:50:05.379Z,46.50
2023-03-02T17:52:32.935Z,46.79
2023-03-02T17:55:00.460Z,47.00
2023-03-02T17:57:28.047Z,47.20
2023-03-02T17:59:57.415Z,47.48
2023-03-02T18:02:26.251Z,47.97
2023-03-02T18:04:53.891Z,48.05
2023-03-02T18:07:21.406Z,48.12
2023-03-02T18:09:48.936Z,48.41
2023-03-02T18:12:16.532Z,48.41
2023-03-02T18:14:44.300Z,48.74
2023-03-02T18:17:12.441Z,49.14
2023-03-02T18:19:41.534Z,49.34
2023-03-02T18:22:09.096Z,49.18
2023-03-02T18:24:36.712Z,49.12
2023-03-02T18:27:04.761Z,49.29
2023-03-02T18:29:32.615Z,49.45
2023-03-02T18:32:00.263Z,49.54
2023-03-02T18:34:27.829Z,49.57
2023-03-02T18:36:56.847Z,49.68
2023-03-02T18:39:24.351Z,49.41
2023-03-02T18:41:51.932Z,49.71
2023-03-02T18:44:19.919Z,49.56
2023-03-02T18:46:47.606Z,49.55
2023-03-02T18:49:15.248Z,49.18
2023-03-02T18:51:43.306Z,49.87
2023-03-02T18:54:12.398Z,49.45
2023-03-02T18:56:40.712Z,49.30
2023-03-02T18:59:09.570Z,49.08
2023-03-02T19:01:37.628Z,49.06
2023-03-02T19:04:05.317Z,48.81
2023-03-02T19:06:43.096Z,49.58
2023-03-02T19:09:12.304Z,49.23
2023-03-02T19:11:39.842Z,49.09
2023-03-02T19:14:07.443Z,48.89
2023-03-02T19:16:36.103Z,49.16
2023-03-02T19:19:03.767Z,49.00
2023-03-02T19:21:31.345Z,49.00
2023-03-02T19:23:59.030Z,49.05
2023-03-02T19:26:27.931Z,48.80
2023-03-02T19:28:55.799Z,49.19
2023-03-02T19:31:24.079Z,49.49
2023-03-02T19:33:51.702Z,49.45
2023-03-02T19:36:19.261Z,49.30
2023-03-02T19:38:46.984Z,49.85
2023-03-02T19:41:17.055Z,49.92
2023-03-02T19:43:46.582Z,49.77
2023-03-02T19:46:15.379Z,49.53
2023-03-02T19:48:43.577Z,49.53
2023-03-02T19:51:12.010Z,49.61
2023-03-02T19:53:40.222Z,49.88
2023-03-02T19:56:12.743Z,49.91
2023-03-02T19:58:46.973Z,50.29
2023-03-02T20:01:21.557Z,50.36
2023-03-02T20:03:51.575Z,50.17
2023-03-02T20:06:19.402Z,50.28
2023-03-02T20:08:48.084Z,50.64
2023-03-02T20:11:16.173Z,50.25
2023-03-02T20:13:43.881Z,50.62
2023-03-02T20:16:13.347Z,50.43
2023-03-02T20:18:42.475Z,50.09
2023-03-02T20:21:10.196Z,50.00
2023-03-02T20:23:38.178Z,49.96
2023-03-02T20:26:06.341Z,50.07
2023-03-02T20:28:34.499Z,50.08
2023-03-02T20:31:08.851Z,50.01
2023-03-02T20:33:39.346Z,49.87
2023-03-02T20:36:09.196Z,50.60
2023-03-02T20:38:43.660Z,50.71
2023-03-02T20:41:12.376Z,50.76
2023-03-02T20:43:40.266Z,50.48
2023-03-02T20:46:09.972Z,50.68
2023-03-02T20:48:39.953Z,50.66
2023-03-02T20:51:08.842Z,50.79
2023-03-02T20:53:36.453Z,50.55
2023-03-02T20:56:04.620Z,50.69
2023-03-02T20:58:32.236Z,50.75
2023-03-02T21:01:00.559Z,50.93
2023-03-02T21:03:28.223Z,51.39
2023-03-02T21:05:56.911Z,50.77
2023-03-02T21:08:25.891Z,51.39
2023-03-02T21:10:53.413Z,50.83
2023-03-02T21:13:22.456Z,51.23
2023-03-02T21:15:50.467Z,51.31
2023-03-02T21:18:18.207Z,51.30
2023-03-02T21:20:45.745Z,51.56
2023-03-02T21:23:13.364Z,51.41
2023-03-02T21:25:43.895Z,52.15
2023-03-02T21:28:11.878Z,51.62
2023-03-02T21:30:39.440Z,52.12
2023-03-02T21:33:07.231Z,51.98
2023-03-02T21:35:34.794Z,52.29
2023-03-02T21:38:05.014Z,52.76
2023-03-02T21:40:34.909Z,52.61
2023-03-02T21:43:05.364Z,52.99
2023-03-02T21:45:33.637Z,53.45
2023-03-02T21:48:01.141Z,53.27
2023-03-02T21:50:31.993Z,53.80
2023-03-02T21:52:59.527Z,53.86
2023-03-02T21:55:27.482Z,53.88
2023-03-02T21:57:55.310Z,53.90
2023-03-02T22:00:26.110Z,53.83
2023-03-02T22:02:54.996Z,54.16
2023-03-02T22:05:22.638Z,54.55
2023-03-02T22:07:50.665Z,54.58
2023-03-02T22:10:27.736Z,54.89
2023-03-02T22:12:58.444Z,54.62
2023-03-02T22:15:28.066Z,55.18
2023-03-02T22:17:56.501Z,54.89
2023-03-02T22:20:24.205Z,55.24
2023-03-02T22:22:54.392Z,55.57
2023-03-02T22:25:22.093Z,55.91
2023-03-02T22:27:49.634Z,56.10
2023-03-02T22:30:20.916Z,56.11
2023-03-02T22:32:50.441Z,56.42
2023-03-02T22:35:24.375Z,56.74
2023-03-02T22:37:55.577Z,56.35
2023-03-02T22:40:29.530Z,57.06
2023-03-02T22:43:07.632Z,56.85
2023-03-02T22:45:36.295Z,57.11
2023-03-02T22:48:11.826Z,57.13
2023-03-02T22:50:39.408Z,57.07
2023-03-02T22:53:22.127Z,57.79
2023-03-02T22:55:49.710Z,57.44
2023-03-02T22:58:29.409Z,58.14
2023-03-02T23:00:58.001Z,57.77
2023-03-02T23:03:36.468Z,58.09
2023-03-02T23:06:20.377Z,58.45
2023-03-02T23:08:47.889Z,57.83
2023-03-02T23:11:18.372Z,58.16
2023-03-02T23:13:46.075Z,57.73
2023-03-02T23:16:19.349Z,57.94
2023-03-02T23:18:49.205Z,58.03
2023-03-02T23:21:20.178Z,57.98
2023-03-02T23:23:48.106Z,57.85
2023-03-02T23:26:15.664Z,57.98
2023-03-02T23:28:43.197Z,58.51
2023-03-02T23:31:10.763Z,58.85
2023-03-02T23:33:38.264Z,58.92
2023-03-02T23:36:08.116Z,59.22
2023-03-02T23:38:35.647Z,59.25
2023-03-02T23:41:03.192Z,59.32
2023-03-02T23:43:30.800Z,59.64
2023-03-02T23:45:58.316Z,59.44
2023-03-02T23:48:26.003Z,59.95
2023-03-02T23:50:53.637Z,59.42
2023-03-02T23:53:22.586Z,59.79
2023-03-02T23:55:52.390Z,59.65
2023-03-02T23:58:19.985Z,59.64
